createdAt,value
2022-08-25T00:00:06.690Z,3.60
2022-08-25T00:01:06.683Z,4.00
2022-08-25T00:02:06.666Z,3.90
2022-08-25T00:03:06.685Z,4.50
2022-08-25T00:04:06.664Z,3.30
2022-08-25T00:05:06.690Z,3.50
2022-08-25T00:06:06.631Z,4.40
2022-08-25T00:07:06.621Z,5.10
2022-08-25T00:08:06.801Z,3.50
2022-08-25T00:09:06.619Z,4.10
2022-08-25T00:10:06.581Z,3.40
2022-08-25T00:11:06.611Z,6.10
2022-08-25T00:12:06.559Z,4.60
2022-08-25T00:13:06.544Z,4.20
2022-08-25T00:14:06.539Z,4.30
2022-08-25T00:15:06.542Z,4.20
2022-08-25T00:16:06.560Z,4.10
2022-08-25T00:17:06.502Z,2.90
2022-08-25T00:18:11.511Z,4.20
2022-08-25T00:19:06.495Z,3.80
2022-08-25T00:20:06.489Z,4.50
2022-08-25T00:21:06.466Z,5.70
2022-08-25T00:22:06.454Z,4.40
2022-08-25T00:23:06.440Z,2.60
2022-08-25T00:24:06.435Z,4.70
2022-08-25T00:25:06.444Z,5.30
2022-08-25T00:26:06.421Z,4.60
2022-08-25T00:27:06.396Z,4.20
2022-08-25T00:28:08.493Z,3.90
2022-08-25T00:29:06.379Z,3.30
2022-08-25T00:30:06.390Z,3.10
2022-08-25T00:31:06.425Z,5.10
2022-08-25T00:32:06.340Z,4.00
2022-08-25T00:33:06.335Z,4.30
2022-08-25T00:34:06.331Z,5.10
2022-08-25T00:35:06.331Z,3.40
2022-08-25T00:36:06.301Z,3.90
2022-08-25T00:37:06.295Z,3.60
2022-08-25T00:38:06.473Z,4.40
2022-08-25T00:39:06.268Z,5.40
2022-08-25T00:40:06.350Z,4.80
2022-08-25T00:41:06.254Z,6.20
2022-08-25T00:42:06.231Z,3.20
2022-08-25T00:43:06.243Z,4.00
2022-08-25T00:44:06.209Z,4.60
2022-08-25T00:45:06.221Z,4.60
2022-08-25T00:46:06.226Z,6.00
2022-08-25T00:47:06.184Z,4.00
2022-08-25T00:48:06.446Z,3.80
2022-08-25T00:49:06.158Z,4.20
2022-08-25T00:50:06.171Z,3.70
2022-08-25T00:51:06.138Z,4.30
2022-08-25T00:52:06.118Z,4.10
2022-08-25T00:53:06.119Z,4.00
2022-08-25T00:54:06.109Z,4.70
2022-08-25T00:55:08.127Z,4.90
2022-08-25T00:56:06.082Z,4.40
2022-08-25T00:57:06.071Z,3.60
2022-08-25T00:58:06.149Z,4.20
2022-08-25T00:59:06.077Z,4.00
2022-08-25T01:00:06.048Z,5.70
2022-08-25T01:01:06.074Z,3.30
2022-08-25T01:02:06.027Z,4.80
2022-08-25T01:03:06.106Z,3.70
2022-08-25T01:04:05.999Z,5.10
2022-08-25T01:05:06.020Z,6.40
2022-08-25T01:06:05.972Z,4.70
2022-08-25T01:07:05.969Z,6.60
2022-08-25T01:08:06.843Z,4.60
2022-08-25T01:09:05.943Z,4.20
2022-08-25T01:10:05.944Z,6.10
2022-08-25T01:11:05.920Z,4.70
2022-08-25T01:12:05.903Z,5.30
2022-08-25T01:13:05.898Z,5.90
2022-08-25T01:14:05.891Z,5.10
2022-08-25T01:15:05.901Z,5.10
2022-08-25T01:16:05.981Z,3.80
2022-08-25T01:17:05.850Z,4.40
2022-08-25T01:18:05.974Z,5.40
2022-08-25T01:19:05.831Z,4.30
2022-08-25T01:20:05.827Z,4.80
2022-08-25T01:21:05.817Z,4.90
2022-08-25T01:22:05.803Z,4.50
2022-08-25T01:23:05.792Z,5.10
2022-08-25T01:24:05.778Z,4.50
2022-08-25T01:25:05.787Z,4.00
2022-08-25T01:26:05.752Z,3.50
2022-08-25T01:27:05.753Z,3.90
2022-08-25T01:28:05.849Z,4.40
2022-08-25T01:29:05.726Z,3.80
2022-08-25T01:30:05.735Z,5.00
2022-08-25T01:31:23.447Z,4.80
2022-08-25T01:32:05.690Z,3.80
2022-08-25T01:33:05.685Z,4.50
2022-08-25T01:34:05.668Z,3.30
2022-08-25T01:35:05.667Z,4.10
2022-08-25T01:36:05.648Z,5.00
2022-08-25T01:37:05.641Z,4.40
2022-08-25T01:38:05.879Z,3.80
2022-08-25T01:39:05.612Z,4.80
2022-08-25T01:40:05.650Z,3.80
2022-08-25T01:41:05.601Z,5.30
2022-08-25T01:42:05.582Z,4.40
2022-08-25T01:43:05.574Z,5.10
2022-08-25T01:44:05.561Z,4.40
2022-08-25T01:45:05.565Z,4.90
2022-08-25T01:46:05.600Z,4.90
2022-08-25T01:47:05.527Z,4.20
2022-08-25T01:48:05.658Z,3.70
2022-08-25T01:49:06.916Z,4.90
2022-08-25T01:50:05.507Z,4.60
2022-08-25T01:51:05.484Z,5.90
2022-08-25T01:52:05.475Z,6.20
2022-08-25T01:53:05.459Z,3.50
2022-08-25T01:54:05.450Z,4.40
2022-08-25T01:55:05.465Z,5.00
2022-08-25T01:56:05.424Z,5.20
2022-08-25T01:57:05.413Z,3.80
2022-08-25T01:58:05.618Z,4.30
2022-08-25T01:59:05.397Z,4.80
2022-08-25T02:00:05.396Z,6.90
2022-08-25T02:01:05.444Z,4.70
2022-08-25T02:02:05.591Z,5.40
2022-08-25T02:04:02.223Z,5.40
2022-08-25T02:05:03.224Z,3.30
2022-08-25T02:06:04.257Z,3.70
2022-08-25T02:07:03.187Z,4.10
2022-08-25T02:08:03.293Z,3.90
2022-08-25T02:09:03.178Z,5.40
2022-08-25T02:10:03.648Z,5.60
2022-08-25T02:11:03.146Z,4.40
2022-08-25T02:12:03.140Z,3.20
2022-08-25T02:13:03.125Z,3.50
2022-08-25T02:14:03.124Z,4.90
2022-08-25T02:15:03.124Z,5.00
2022-08-25T02:16:03.109Z,4.40
2022-08-25T02:17:03.129Z,4.60
2022-08-25T02:18:03.125Z,4.70
2022-08-25T02:19:03.059Z,4.00
2022-08-25T02:20:03.096Z,4.30
2022-08-25T02:21:03.067Z,3.90
2022-08-25T02:22:03.081Z,4.40
2022-08-25T02:23:03.022Z,6.20
2022-08-25T02:24:03.026Z,3.90
2022-08-25T02:25:03.012Z,4.90
2022-08-25T02:26:02.992Z,5.40
2022-08-25T02:27:02.973Z,7.30
2022-08-25T02:28:03.006Z,5.80
2022-08-25T02:29:02.949Z,5.20
2022-08-25T02:30:02.985Z,5.20
2022-08-25T02:31:02.978Z,5.40
2022-08-25T02:32:02.925Z,5.30
2022-08-25T02:33:02.924Z,5.20
2022-08-25T02:34:02.915Z,4.80
2022-08-25T02:35:02.938Z,4.60
2022-08-25T02:36:02.877Z,4.80
2022-08-25T02:37:02.911Z,5.50
2022-08-25T02:38:03.013Z,3.80
2022-08-25T02:39:02.833Z,4.50
2022-08-25T02:40:02.906Z,4.40
2022-08-25T02:41:02.822Z,4.60
2022-08-25T02:42:02.829Z,6.70
2022-08-25T02:43:02.823Z,6.60
2022-08-25T02:44:02.795Z,6.40
2022-08-25T02:45:02.810Z,5.30
2022-08-25T02:46:02.829Z,4.30
2022-08-25T02:47:02.769Z,5.80
2022-08-25T02:48:02.770Z,6.50
2022-08-25T02:49:02.753Z,6.60
2022-08-25T02:50:02.736Z,3.70
2022-08-25T02:51:02.786Z,5.90
2022-08-25T02:52:02.712Z,5.90
2022-08-25T02:53:02.692Z,4.60
2022-08-25T02:54:02.690Z,5.90
2022-08-25T02:55:02.699Z,6.60
2022-08-25T02:56:02.708Z,4.60
2022-08-25T02:57:02.649Z,5.40
2022-08-25T02:58:02.656Z,5.90
2022-08-25T02:59:02.642Z,6.10
2022-08-25T03:00:02.746Z,6.10
2022-08-25T03:01:02.654Z,5.10
2022-08-25T03:02:02.666Z,6.10
2022-08-25T03:03:02.580Z,6.50
2022-08-25T03:04:02.644Z,4.90
2022-08-25T03:05:02.645Z,5.30
2022-08-25T03:06:02.580Z,4.60
2022-08-25T03:07:02.623Z,5.60
2022-08-25T03:08:02.586Z,5.50
2022-08-25T03:09:02.518Z,4.30
2022-08-25T03:10:02.561Z,4.70
2022-08-25T03:11:02.536Z,5.20
2022-08-25T03:12:02.492Z,6.50
2022-08-25T03:13:02.473Z,5.30
2022-08-25T03:14:02.491Z,6.70
2022-08-25T03:15:02.516Z,8.00
2022-08-25T03:16:02.887Z,5.50
2022-08-25T03:17:02.496Z,5.70
2022-08-25T03:18:02.556Z,6.20
2022-08-25T03:19:02.420Z,4.30
2022-08-25T03:20:02.409Z,5.30
2022-08-25T03:21:02.415Z,6.10
2022-08-25T03:22:02.408Z,5.00
2022-08-25T03:23:02.368Z,5.80
2022-08-25T03:24:02.359Z,4.50
2022-08-25T03:25:02.342Z,4.50
2022-08-25T03:26:02.369Z,4.40
2022-08-25T03:27:02.329Z,5.00
2022-08-25T03:28:02.360Z,4.80
2022-08-25T03:29:02.330Z,4.70
2022-08-25T03:30:02.312Z,6.00
2022-08-25T03:31:02.314Z,5.90
2022-08-25T03:32:02.323Z,5.90
2022-08-25T03:33:02.268Z,5.90
2022-08-25T03:34:02.264Z,5.10
2022-08-25T03:35:02.280Z,4.10
2022-08-25T03:36:02.261Z,5.10
2022-08-25T03:37:02.233Z,5.20
2022-08-25T03:38:02.291Z,4.60
2022-08-25T03:39:02.215Z,5.00
2022-08-25T03:40:02.254Z,5.40
2022-08-25T03:41:02.194Z,4.80
2022-08-25T03:42:02.172Z,5.30
2022-08-25T03:43:02.190Z,3.60
2022-08-25T03:44:02.149Z,4.80
2022-08-25T03:45:02.130Z,4.60
2022-08-25T03:46:02.289Z,6.10
2022-08-25T03:47:02.147Z,3.70
2022-08-25T03:48:02.180Z,5.20
2022-08-25T03:49:02.114Z,5.30
2022-08-25T03:50:02.074Z,6.00
2022-08-25T03:51:02.100Z,7.50
2022-08-25T03:52:02.055Z,3.90
2022-08-25T03:53:02.049Z,5.40
2022-08-25T03:54:02.076Z,6.00
2022-08-25T03:55:02.029Z,4.10
2022-08-25T03:56:02.042Z,7.00
2022-08-25T03:57:02.005Z,3.20
2022-08-25T03:58:02.081Z,6.00
2022-08-25T03:59:01.965Z,4.80
2022-08-25T04:00:01.974Z,4.40
2022-08-25T04:01:02.061Z,5.10
2022-08-25T04:02:02.000Z,5.50
2022-08-25T04:03:01.942Z,5.60
2022-08-25T04:04:01.923Z,4.40
2022-08-25T04:05:01.924Z,6.80
2022-08-25T04:06:01.935Z,4.60
2022-08-25T04:07:01.882Z,5.20
2022-08-25T04:08:02.118Z,6.80
2022-08-25T04:09:01.882Z,6.10
2022-08-25T04:10:01.901Z,5.20
2022-08-25T04:11:01.871Z,5.00
2022-08-25T04:12:01.837Z,7.60
2022-08-25T04:13:01.872Z,5.00
2022-08-25T04:14:01.812Z,3.60
2022-08-25T04:15:01.817Z,3.90
2022-08-25T04:16:01.895Z,5.90
2022-08-25T04:17:01.781Z,6.20
2022-08-25T04:18:01.815Z,5.10
2022-08-25T04:19:01.832Z,5.70
2022-08-25T04:20:01.770Z,4.90
2022-08-25T04:21:01.787Z,4.10
2022-08-25T04:22:01.757Z,5.10
2022-08-25T04:23:01.725Z,4.60
2022-08-25T04:24:01.772Z,5.30
2022-08-25T04:25:01.694Z,6.00
2022-08-25T04:26:01.719Z,5.70
2022-08-25T04:27:01.725Z,7.50
2022-08-25T04:28:01.741Z,5.00
2022-08-25T04:29:01.656Z,6.10
2022-08-25T04:30:01.653Z,4.00
2022-08-25T04:31:01.655Z,7.30
2022-08-25T04:32:01.738Z,5.60
2022-08-25T04:33:01.610Z,5.60
2022-08-25T04:34:01.621Z,4.50
2022-08-25T04:35:01.598Z,5.50
2022-08-25T04:36:01.603Z,6.40
2022-08-25T04:37:01.622Z,5.20
2022-08-25T04:38:01.648Z,5.20
2022-08-25T04:39:01.544Z,5.80
2022-08-25T04:40:01.648Z,4.30
2022-08-25T04:41:01.601Z,5.50
2022-08-25T04:42:01.516Z,5.50
2022-08-25T04:43:01.518Z,5.00
2022-08-25T04:44:01.497Z,6.10
2022-08-25T04:45:01.537Z,6.80
2022-08-25T04:46:01.573Z,7.50
2022-08-25T04:47:01.472Z,4.40
2022-08-25T04:48:01.595Z,6.80
2022-08-25T04:49:01.469Z,5.00
2022-08-25T04:50:01.443Z,4.40
2022-08-25T04:51:01.438Z,6.10
2022-08-25T04:52:01.426Z,5.80
2022-08-25T04:53:01.411Z,5.00
2022-08-25T04:54:01.385Z,4.50
2022-08-25T04:55:01.366Z,4.80
2022-08-25T04:56:03.815Z,5.80
2022-08-25T04:57:01.358Z,5.00
2022-08-25T04:58:01.344Z,5.30
2022-08-25T04:59:01.336Z,7.80
2022-08-25T05:00:01.322Z,6.10
2022-08-25T05:01:01.420Z,5.70
2022-08-25T05:02:01.302Z,4.80
2022-08-25T05:03:01.287Z,5.10
2022-08-25T05:04:01.292Z,5.10
2022-08-25T05:05:01.264Z,6.00
2022-08-25T05:06:01.274Z,4.40
2022-08-25T05:07:01.256Z,5.10
2022-08-25T05:08:01.248Z,5.40
2022-08-25T05:09:01.215Z,5.40
2022-08-25T05:10:01.202Z,5.40
2022-08-25T05:11:01.217Z,5.90
2022-08-25T05:12:01.186Z,6.30
2022-08-25T05:13:01.166Z,5.10
2022-08-25T05:14:01.177Z,4.40
2022-08-25T05:15:01.155Z,7.20
2022-08-25T05:16:01.250Z,4.90
2022-08-25T05:17:01.129Z,5.60
2022-08-25T05:18:01.259Z,6.80
2022-08-25T05:19:01.112Z,6.50
2022-08-25T05:20:01.155Z,5.20
2022-08-25T05:21:01.116Z,6.60
2022-08-25T05:22:01.092Z,6.80
2022-08-25T05:23:01.075Z,6.20
2022-08-25T05:24:01.069Z,6.00
2022-08-25T05:25:01.040Z,5.90
2022-08-25T05:26:01.060Z,6.60
2022-08-25T05:27:01.021Z,8.70
2022-08-25T05:28:01.015Z,5.10
2022-08-25T05:29:01.022Z,6.20
2022-08-25T05:30:00.993Z,5.40
2022-08-25T05:31:01.006Z,6.80
2022-08-25T05:32:01.031Z,4.50
2022-08-25T05:33:00.961Z,7.80
2022-08-25T05:34:00.946Z,6.00
2022-08-25T05:35:00.943Z,6.70
2022-08-25T05:36:00.944Z,9.00
2022-08-25T05:37:00.930Z,5.80
2022-08-25T05:38:00.914Z,5.90
2022-08-25T05:39:00.899Z,5.70
2022-08-25T05:40:00.927Z,5.90
2022-08-25T05:41:00.931Z,5.90
2022-08-25T05:42:00.886Z,6.20
2022-08-25T05:43:00.853Z,5.50
2022-08-25T05:44:00.896Z,8.70
2022-08-25T05:45:00.843Z,7.70
2022-08-25T05:46:00.916Z,6.10
2022-08-25T05:47:00.871Z,7.30
2022-08-25T05:48:00.808Z,6.70
2022-08-25T05:49:00.815Z,5.20
2022-08-25T05:50:00.791Z,5.00
2022-08-25T05:51:00.793Z,7.10
2022-08-25T05:52:00.759Z,4.60
2022-08-25T05:53:00.752Z,8.70
2022-08-25T05:54:00.731Z,6.40
2022-08-25T05:55:00.750Z,4.40
2022-08-25T05:56:00.718Z,7.50
2022-08-25T05:57:00.748Z,6.40
2022-08-25T05:58:00.696Z,5.10
2022-08-25T05:59:00.705Z,7.00
2022-08-25T06:00:00.696Z,5.10
2022-08-25T06:01:00.715Z,6.30
2022-08-25T06:02:00.661Z,5.30
2022-08-25T06:03:00.692Z,6.00
2022-08-25T06:04:00.710Z,4.80
2022-08-25T06:05:00.629Z,4.30
2022-08-25T06:06:00.616Z,4.30
2022-08-25T06:07:00.617Z,5.20
2022-08-25T06:08:00.579Z,8.10
2022-08-25T06:09:00.599Z,7.00
2022-08-25T06:10:00.564Z,4.90
2022-08-25T06:11:00.559Z,6.80
2022-08-25T06:12:00.585Z,6.70
2022-08-25T06:13:00.539Z,7.30
2022-08-25T06:14:00.539Z,6.40
2022-08-25T06:15:00.517Z,7.00
2022-08-25T06:16:00.585Z,5.60
2022-08-25T06:17:00.494Z,6.10
2022-08-25T06:18:05.469Z,6.80
2022-08-25T06:19:00.468Z,7.10
2022-08-25T06:20:00.450Z,6.80
2022-08-25T06:21:00.457Z,6.90
2022-08-25T06:22:00.443Z,5.40
2022-08-25T06:23:00.415Z,6.30
2022-08-25T06:24:00.407Z,7.20
2022-08-25T06:25:00.399Z,6.80
2022-08-25T06:26:00.402Z,7.80
2022-08-25T06:27:00.374Z,9.90
2022-08-25T06:28:00.376Z,8.70
2022-08-25T06:29:00.342Z,7.90
2022-08-25T06:30:00.418Z,8.80
2022-08-25T06:31:00.363Z,7.60
2022-08-25T06:32:00.312Z,7.60
2022-08-25T06:33:00.306Z,6.70
2022-08-25T06:34:00.306Z,6.80
2022-08-25T06:35:00.294Z,12.90
2022-08-25T06:36:00.288Z,7.70
2022-08-25T06:37:00.259Z,7.60
2022-08-25T06:38:00.348Z,8.30
2022-08-25T06:39:00.252Z,9.20
2022-08-25T06:40:00.353Z,7.30
2022-08-25T06:41:00.232Z,8.60
2022-08-25T06:42:00.223Z,7.80
2022-08-25T06:43:00.198Z,9.30
2022-08-25T06:44:05.527Z,10.90
2022-08-25T06:45:00.204Z,8.90
2022-08-25T06:46:00.197Z,11.90
2022-08-25T06:47:00.260Z,7.20
2022-08-25T06:48:00.228Z,6.60
2022-08-25T06:49:00.130Z,7.00
2022-08-25T06:50:00.140Z,7.70
2022-08-25T06:51:00.125Z,8.10
2022-08-25T06:52:00.115Z,12.50
2022-08-25T06:53:00.085Z,7.00
2022-08-25T06:54:00.115Z,9.40
2022-08-25T06:55:00.080Z,9.60
2022-08-25T06:56:04.561Z,10.20
2022-08-25T06:57:00.078Z,11.10
2022-08-25T06:58:00.137Z,8.90
2022-08-25T06:59:00.025Z,7.40
2022-08-25T07:00:00.031Z,7.50
2022-08-25T07:01:00.068Z,12.70
2022-08-25T07:02:00.081Z,10.80
2022-08-25T07:03:00.008Z,11.50
2022-08-25T07:03:59.999Z,11.20
2022-08-25T07:04:59.980Z,9.30
2022-08-25T07:05:59.955Z,9.40
2022-08-25T07:06:59.954Z,11.70
2022-08-25T07:08:00.005Z,9.80
2022-08-25T07:08:59.920Z,10.50
2022-08-25T07:09:59.913Z,10.00
2022-08-25T07:10:59.926Z,10.00
2022-08-25T07:11:59.901Z,11.90
2022-08-25T07:12:59.860Z,9.50
2022-08-25T07:13:59.892Z,10.00
2022-08-25T07:15:18.971Z,12.70
2022-08-25T07:15:59.885Z,10.40
2022-08-25T07:16:59.908Z,12.30
2022-08-25T07:17:59.851Z,11.90
2022-08-25T07:19:00.308Z,10.50
2022-08-25T07:19:59.791Z,11.40
2022-08-25T07:20:59.792Z,11.00
2022-08-25T07:21:59.818Z,11.30
2022-08-25T07:22:59.807Z,13.60
2022-08-25T07:23:59.795Z,12.40
2022-08-25T07:24:59.730Z,13.20
2022-08-25T07:26:02.969Z,11.10
2022-08-25T07:26:59.746Z,11.60
2022-08-25T07:27:59.709Z,9.90
2022-08-25T07:28:59.722Z,12.30
2022-08-25T07:29:59.699Z,13.20
2022-08-25T07:30:59.699Z,12.50
2022-08-25T07:31:59.693Z,12.40
2022-08-25T07:33:00.778Z,13.70
2022-08-25T07:33:59.710Z,12.80
2022-08-25T07:34:59.676Z,11.80
2022-08-25T07:35:59.633Z,11.80
2022-08-25T07:36:59.625Z,10.60
2022-08-25T07:37:59.638Z,11.10
2022-08-25T07:38:59.585Z,10.90
2022-08-25T07:39:59.592Z,10.90
2022-08-25T07:40:59.569Z,10.20
2022-08-25T07:41:59.589Z,12.30
2022-08-25T07:42:59.694Z,12.80
2022-08-25T07:43:59.534Z,11.00
2022-08-25T07:44:59.568Z,13.60
2022-08-25T07:45:59.524Z,11.10
2022-08-25T07:46:59.576Z,9.80
2022-08-25T07:47:59.497Z,10.70
2022-08-25T07:48:59.473Z,11.70
2022-08-25T07:49:59.465Z,10.90
2022-08-25T07:51:01.741Z,10.20
2022-08-25T07:52:03.766Z,12.00
2022-08-25T07:52:59.598Z,11.80
2022-08-25T07:53:59.486Z,10.50
2022-08-25T07:54:59.418Z,9.60
2022-08-25T07:55:59.449Z,8.70
2022-08-25T07:56:59.423Z,9.60
2022-08-25T07:57:59.393Z,10.50
2022-08-25T07:58:59.365Z,9.00
2022-08-25T07:59:59.382Z,8.90
2022-08-25T08:00:59.343Z,11.60
2022-08-25T08:01:59.425Z,10.10
2022-08-25T08:02:59.416Z,10.20
2022-08-25T08:04:05.913Z,9.00
2022-08-25T08:04:59.303Z,10.50
2022-08-25T08:05:59.289Z,9.60
2022-08-25T08:06:59.285Z,9.50
2022-08-25T08:07:59.273Z,10.20
2022-08-25T08:08:59.265Z,8.00
2022-08-25T08:10:28.187Z,10.50
2022-08-25T08:11:06.318Z,9.20
2022-08-25T08:11:59.258Z,8.90
2022-08-25T08:12:59.224Z,8.80
2022-08-25T08:13:59.233Z,8.00
2022-08-25T08:14:59.198Z,8.50
2022-08-25T08:15:59.258Z,8.10
2022-08-25T08:16:59.196Z,9.90
2022-08-25T08:17:59.379Z,8.20
2022-08-25T08:18:59.148Z,8.00
2022-08-25T08:19:59.141Z,8.80
2022-08-25T08:20:59.135Z,8.90
2022-08-25T08:22:02.292Z,8.20
2022-08-25T08:22:59.120Z,8.30
2022-08-25T08:23:59.284Z,9.10
2022-08-25T08:24:59.077Z,9.00
2022-08-25T08:25:59.071Z,9.70
2022-08-25T08:26:59.428Z,9.30
2022-08-25T08:27:59.052Z,10.60
2022-08-25T08:28:59.035Z,12.20
2022-08-25T08:29:59.031Z,8.30
2022-08-25T08:30:59.086Z,9.40
2022-08-25T08:31:59.022Z,8.80
2022-08-25T08:33:09.688Z,10.90
2022-08-25T08:33:59.006Z,9.20
2022-08-25T08:34:58.976Z,10.70
2022-08-25T08:35:59.155Z,10.20
2022-08-25T08:36:58.968Z,13.10
2022-08-25T08:37:58.957Z,12.30
2022-08-25T08:38:58.936Z,9.10
2022-08-25T08:39:58.963Z,8.80
2022-08-25T08:40:58.912Z,9.80
2022-08-25T08:42:16.945Z,10.40
2022-08-25T08:42:59.032Z,10.00
2022-08-25T08:43:58.961Z,9.90
2022-08-25T08:45:02.003Z,8.00
2022-08-25T08:45:58.877Z,8.60
2022-08-25T08:46:58.861Z,9.00
2022-08-25T08:47:58.867Z,8.80
2022-08-25T08:48:58.821Z,7.00
2022-08-25T08:49:58.840Z,10.80
2022-08-25T08:50:58.803Z,7.40
2022-08-25T08:51:58.811Z,8.70
2022-08-25T08:52:58.781Z,10.10
2022-08-25T08:53:58.784Z,10.90
2022-08-25T08:54:58.765Z,9.40
2022-08-25T08:55:58.751Z,8.20
2022-08-25T08:56:58.753Z,10.30
2022-08-25T08:57:58.746Z,9.70
2022-08-25T08:59:00.574Z,8.90
2022-08-25T08:59:58.726Z,8.40
2022-08-25T09:00:58.691Z,9.50
2022-08-25T09:01:58.765Z,9.10
2022-08-25T09:02:58.707Z,10.40
2022-08-25T09:03:58.663Z,10.80
2022-08-25T09:04:58.651Z,10.00
2022-08-25T09:05:58.652Z,9.90
2022-08-25T09:06:58.646Z,7.50
2022-08-25T09:07:58.632Z,6.80
2022-08-25T09:08:58.623Z,9.90
2022-08-25T09:09:58.610Z,8.00
2022-08-25T09:10:58.583Z,10.00
2022-08-25T09:11:58.600Z,8.70
2022-08-25T09:12:58.571Z,8.60
2022-08-25T09:13:58.563Z,9.90
2022-08-25T09:14:58.544Z,9.20
2022-08-25T09:15:58.602Z,9.80
2022-08-25T09:16:58.544Z,8.50
2022-08-25T09:17:58.513Z,8.60
2022-08-25T09:18:58.506Z,7.80
2022-08-25T09:19:58.492Z,8.10
2022-08-25T09:20:58.484Z,8.00
2022-08-25T09:21:58.490Z,8.30
2022-08-25T09:22:58.456Z,9.90
2022-08-25T09:23:58.463Z,10.60
2022-08-25T09:24:58.435Z,8.50
2022-08-25T09:25:58.432Z,9.80
2022-08-25T09:26:58.427Z,9.80
2022-08-25T09:27:58.425Z,8.40
2022-08-25T09:28:58.386Z,7.10
2022-08-25T09:29:58.486Z,7.60
2022-08-25T09:30:58.486Z,9.60
2022-08-25T09:31:58.398Z,10.90
2022-08-25T09:32:58.357Z,11.70
2022-08-25T09:33:58.344Z,10.00
2022-08-25T09:34:58.328Z,8.40
2022-08-25T09:35:58.321Z,9.10
2022-08-25T09:36:58.323Z,8.10
2022-08-25T09:37:58.373Z,9.30
2022-08-25T09:38:58.281Z,8.70
2022-08-25T09:39:58.322Z,8.10
2022-08-25T09:40:58.281Z,8.10
2022-08-25T09:41:59.219Z,9.20
2022-08-25T09:42:58.640Z,8.20
2022-08-25T09:43:58.237Z,8.00
2022-08-25T09:44:58.245Z,8.50
2022-08-25T09:45:58.270Z,8.60
2022-08-25T09:46:58.219Z,8.40
2022-08-25T09:47:58.194Z,7.60
2022-08-25T09:48:58.191Z,8.80
2022-08-25T09:49:58.161Z,8.30
2022-08-25T09:50:58.156Z,9.60
2022-08-25T09:51:58.173Z,8.20
2022-08-25T09:52:58.133Z,7.90
2022-08-25T09:53:58.124Z,7.70
2022-08-25T09:54:58.108Z,8.70
2022-08-25T09:56:00.270Z,7.30
2022-08-25T09:56:58.107Z,10.10
2022-08-25T09:57:58.085Z,8.60
2022-08-25T09:59:02.377Z,8.80
2022-08-25T09:59:58.094Z,9.30
2022-08-25T10:00:58.077Z,7.80
2022-08-25T10:01:58.131Z,9.70
2022-08-25T10:02:58.028Z,8.30
2022-08-25T10:03:58.022Z,8.70
2022-08-25T10:04:58.033Z,7.80
2022-08-25T10:05:57.997Z,8.40
2022-08-25T10:06:58.000Z,8.90
2022-08-25T10:07:57.978Z,7.00
2022-08-25T10:08:57.973Z,8.10
2022-08-25T10:09:57.966Z,8.20
2022-08-25T10:10:57.942Z,9.30
2022-08-25T10:11:58.044Z,8.20
2022-08-25T10:12:57.922Z,6.60
2022-08-25T10:13:57.921Z,11.20
2022-08-25T10:14:57.934Z,7.70
2022-08-25T10:15:57.911Z,8.30
2022-08-25T10:16:57.903Z,7.50
2022-08-25T10:17:57.884Z,7.50
2022-08-25T10:18:57.861Z,7.30
2022-08-25T10:19:57.842Z,9.10
2022-08-25T10:20:57.833Z,9.30
2022-08-25T10:21:57.850Z,7.60
2022-08-25T10:22:57.809Z,6.90
2022-08-25T10:23:57.807Z,6.20
2022-08-25T10:24:57.792Z,7.70
2022-08-25T10:26:01.815Z,7.20
2022-08-25T10:26:57.797Z,6.90
2022-08-25T10:27:57.763Z,8.60
2022-08-25T10:28:57.749Z,7.40
2022-08-25T10:29:57.743Z,8.80
2022-08-25T10:30:57.803Z,9.40
2022-08-25T10:31:57.764Z,8.10
2022-08-25T10:32:57.709Z,6.20
2022-08-25T10:33:57.725Z,6.20
2022-08-25T10:34:57.713Z,7.30
2022-08-25T10:35:57.683Z,5.20
2022-08-25T10:36:57.721Z,6.50
2022-08-25T10:37:57.655Z,7.10
2022-08-25T10:38:57.650Z,5.20
2022-08-25T10:39:57.703Z,6.40
2022-08-25T10:40:57.630Z,7.50
2022-08-25T10:41:57.649Z,6.30
2022-08-25T10:42:57.608Z,6.20
2022-08-25T10:43:58.611Z,6.60
2022-08-25T10:44:57.588Z,7.10
2022-08-25T10:45:57.694Z,7.70
2022-08-25T10:46:57.580Z,6.30
2022-08-25T10:47:57.554Z,6.90
2022-08-25T10:48:58.473Z,6.60
2022-08-25T10:49:57.696Z,7.10
2022-08-25T10:50:57.512Z,8.30
2022-08-25T10:51:57.523Z,5.70
2022-08-25T10:52:57.500Z,8.80
2022-08-25T10:53:57.483Z,6.10
2022-08-25T10:54:57.477Z,8.20
2022-08-25T10:55:57.464Z,6.10
2022-08-25T10:57:01.473Z,7.70
2022-08-25T10:57:57.445Z,6.80
2022-08-25T10:58:57.436Z,7.90
2022-08-25T10:59:57.426Z,7.70
2022-08-25T11:00:57.506Z,8.50
2022-08-25T11:01:57.574Z,7.90
2022-08-25T11:02:57.428Z,6.80
2022-08-25T11:03:57.447Z,7.90
2022-08-25T11:04:57.424Z,6.70
2022-08-25T11:05:57.359Z,6.90
2022-08-25T11:06:57.357Z,7.40
2022-08-25T11:07:57.362Z,7.20
2022-08-25T11:08:57.322Z,9.10
2022-08-25T11:09:57.320Z,8.90
2022-08-25T11:10:57.303Z,8.00
2022-08-25T11:11:57.299Z,9.20
2022-08-25T11:12:57.282Z,8.10
2022-08-25T11:13:57.290Z,8.00
2022-08-25T11:14:57.266Z,6.60
2022-08-25T11:16:16.677Z,6.50
2022-08-25T11:16:57.337Z,7.90
2022-08-25T11:17:57.229Z,7.40
2022-08-25T11:18:57.208Z,7.60
2022-08-25T11:19:57.210Z,7.00
2022-08-25T11:20:57.191Z,8.30
2022-08-25T11:21:57.208Z,6.40
2022-08-25T11:22:57.165Z,6.50
2022-08-25T11:23:57.176Z,7.10
2022-08-25T11:24:57.147Z,7.80
2022-08-25T11:25:57.149Z,6.60
2022-08-25T11:26:57.128Z,6.60
2022-08-25T11:27:57.135Z,6.60
2022-08-25T11:28:57.109Z,7.80
2022-08-25T11:29:57.187Z,7.70
2022-08-25T11:30:57.173Z,6.00
2022-08-25T11:31:57.079Z,7.50
2022-08-25T11:32:57.180Z,6.00
2022-08-25T11:33:57.108Z,5.90
2022-08-25T11:34:57.090Z,6.70
2022-08-25T11:35:57.073Z,7.10
2022-08-25T11:36:57.031Z,8.80
2022-08-25T11:37:57.021Z,6.50
2022-08-25T11:38:57.013Z,6.20
2022-08-25T11:39:57.066Z,5.00
2022-08-25T11:40:56.985Z,8.80
2022-08-25T11:41:56.991Z,7.20
2022-08-25T11:42:56.960Z,6.40
2022-08-25T11:43:56.985Z,6.50
2022-08-25T11:44:56.944Z,7.40
2022-08-25T11:45:56.964Z,8.00
2022-08-25T11:46:56.936Z,6.30
2022-08-25T11:47:56.913Z,7.10
2022-08-25T11:48:56.905Z,6.80
2022-08-25T11:49:56.900Z,7.80
2022-08-25T11:50:56.883Z,6.10
2022-08-25T11:52:02.987Z,6.30
2022-08-25T11:52:56.910Z,5.00
2022-08-25T11:53:56.880Z,5.30
2022-08-25T11:54:56.861Z,6.30
2022-08-25T11:55:56.835Z,6.00
2022-08-25T11:56:56.837Z,6.30
2022-08-25T11:57:56.835Z,6.80
2022-08-25T11:58:56.786Z,6.40
2022-08-25T11:59:56.790Z,7.20
2022-08-25T12:00:56.790Z,5.40
2022-08-25T12:01:56.783Z,6.40
2022-08-25T12:03:00.919Z,5.80
2022-08-25T12:03:56.886Z,5.90
2022-08-25T12:04:56.859Z,4.40
2022-08-25T12:05:56.728Z,4.90
2022-08-25T12:06:56.711Z,5.90
2022-08-25T12:07:56.716Z,7.00
2022-08-25T12:08:57.619Z,4.60
2022-08-25T12:09:56.980Z,6.40
2022-08-25T12:10:56.940Z,4.90
2022-08-25T12:11:56.700Z,5.20
2022-08-25T12:12:56.729Z,5.80
2022-08-25T12:13:56.693Z,6.00
2022-08-25T12:14:56.622Z,5.60
2022-08-25T12:15:56.635Z,4.20
2022-08-25T12:16:56.740Z,4.70
2022-08-25T12:17:56.601Z,5.60
2022-08-25T12:18:56.579Z,5.60
2022-08-25T12:19:56.580Z,6.40
2022-08-25T12:20:56.585Z,6.40
2022-08-25T12:21:56.569Z,6.50
2022-08-25T12:22:56.662Z,5.30
2022-08-25T12:23:56.542Z,4.90
2022-08-25T12:24:56.523Z,6.70
2022-08-25T12:25:56.513Z,4.80
2022-08-25T12:26:56.506Z,7.30
2022-08-25T12:27:56.512Z,6.50
2022-08-25T12:28:56.494Z,5.80
2022-08-25T12:29:56.468Z,4.80
2022-08-25T12:30:56.495Z,6.90
2022-08-25T12:31:56.461Z,5.60
2022-08-25T12:32:56.445Z,5.50
2022-08-25T12:33:56.468Z,4.90
2022-08-25T12:34:56.424Z,5.70
2022-08-25T12:35:56.417Z,6.20
2022-08-25T12:36:56.396Z,5.50
2022-08-25T12:37:56.397Z,5.90
2022-08-25T12:38:56.382Z,5.10
2022-08-25T12:39:58.699Z,4.60
2022-08-25T12:40:56.373Z,5.00
2022-08-25T12:41:56.420Z,4.80
2022-08-25T12:42:56.345Z,6.30
2022-08-25T12:43:56.325Z,5.30
2022-08-25T12:44:56.316Z,4.80
2022-08-25T12:45:56.324Z,5.90
2022-08-25T12:46:56.306Z,5.40
2022-08-25T12:47:56.336Z,5.20
2022-08-25T12:48:56.266Z,5.60
2022-08-25T12:49:56.366Z,5.00
2022-08-25T12:50:56.290Z,4.50
2022-08-25T12:51:57.449Z,5.30
2022-08-25T12:52:56.226Z,5.20
2022-08-25T12:53:56.225Z,6.20
2022-08-25T12:54:56.217Z,5.00
2022-08-25T12:55:56.202Z,6.30
2022-08-25T12:56:56.192Z,4.90
2022-08-25T12:57:56.186Z,5.60
2022-08-25T12:59:00.936Z,5.10
2022-08-25T12:59:56.170Z,4.60
2022-08-25T13:00:57.983Z,5.70
2022-08-25T13:01:56.299Z,5.10
2022-08-25T13:02:56.305Z,4.70
2022-08-25T13:03:56.138Z,7.50
2022-08-25T13:04:56.236Z,4.90
2022-08-25T13:05:56.088Z,5.80
2022-08-25T13:06:56.076Z,4.60
2022-08-25T13:07:56.076Z,6.20
2022-08-25T13:08:56.317Z,4.70
2022-08-25T13:09:56.072Z,5.00
2022-08-25T13:10:56.053Z,5.60
2022-08-25T13:11:56.568Z,5.30
2022-08-25T13:12:56.016Z,5.80
2022-08-25T13:13:56.009Z,6.40
2022-08-25T13:14:55.994Z,6.70
2022-08-25T13:15:56.008Z,6.30